Rayford, Texas
Current Conditions -  °F | °C
As of 11:53 AM on Tuesday 21 Oct 2014 (Local Time) from KIAH Reporting Station
Clear Clear  
Wind Chill: 25°   Ceiling: Unl
Heat Index: 26°   Visibility: 10mi
Dew Point: 13°   Wind: 9mph
Humidity: 46%   Direction: 100°E
Pressure: 30.08"   Gusts: NA
Location:  30.0613°N, 95.3841°W
Report Text: KIAH 211653Z 10008KT 10SM CLR 25/13 A3008 RMK AO2 SLP184 T02500128 $
Loading
Personal Weather Stations






























Interactive Weather Map
Tropical Storm Tracking
New forecast layout! Learn more

10-Day Weather Forecast

Advertisements
Track Severe Weather on mobile